sensor_id;sensor_type;location;lat;lon;timestamp;pressure;altitude;pressure_sealevel;temperature;humidity
77725;BME280;66892;53.236;6.550;2023-03-01T00:00:24;103405.59;;;-1.41;95.10
77725;BME280;66892;53.236;6.550;2023-03-01T00:02:50;103406.47;;;-1.41;94.62
77725;BME280;66892;53.236;6.550;2023-03-01T00:05:17;103402.34;;;-1.39;95.07
77725;BME280;66892;53.236;6.550;2023-03-01T00:07:43;103400.25;;;-1.43;94.99
77725;BME280;66892;53.236;6.550;2023-03-01T00:10:11;103403.00;;;-1.41;94.23
77725;BME280;66892;53.236;6.550;2023-03-01T00:12:37;103399.59;;;-1.40;94.75
77725;BME280;66892;53.236;6.550;2023-03-01T00:15:03;103401.16;;;-1.42;94.45
77725;BME280;66892;53.236;6.550;2023-03-01T00:17:30;103398.56;;;-1.42;94.69
77725;BME280;66892;53.236;6.550;2023-03-01T00:19:56;103397.81;;;-1.41;94.71
77725;BME280;66892;53.236;6.550;2023-03-01T00:22:22;103390.63;;;-1.44;94.16
77725;BME280;66892;53.236;6.550;2023-03-01T00:24:49;103394.56;;;-1.39;94.15
77725;BME280;66892;53.236;6.550;2023-03-01T00:27:16;103391.19;;;-1.48;94.29
77725;BME280;66892;53.236;6.550;2023-03-01T00:29:42;103398.16;;;-1.47;94.58
77725;BME280;66892;53.236;6.550;2023-03-01T00:32:08;103400.22;;;-1.53;94.36
77725;BME280;66892;53.236;6.550;2023-03-01T00:34:34;103403.22;;;-1.48;94.41
77725;BME280;66892;53.236;6.550;2023-03-01T00:37:00;103396.09;;;-1.51;94.87
77725;BME280;66892;53.236;6.550;2023-03-01T00:39:31;103395.69;;;-1.55;94.72
77725;BME280;66892;53.236;6.550;2023-03-01T00:41:57;103393.22;;;-1.54;94.43
77725;BME280;66892;53.236;6.550;2023-03-01T00:44:25;103391.28;;;-1.56;94.73
77725;BME280;66892;53.236;6.550;2023-03-01T00:46:51;103393.22;;;-1.54;94.36
77725;BME280;66892;53.236;6.550;2023-03-01T00:49:17;103395.69;;;-1.55;94.57
77725;BME280;66892;53.236;6.550;2023-03-01T00:51:43;103398.69;;;-1.61;94.64
77725;BME280;66892;53.236;6.550;2023-03-01T00:54:09;103404.38;;;-1.65;94.41
77725;BME280;66892;53.236;6.550;2023-03-01T00:56:35;103401.28;;;-1.61;94.82
77725;BME280;66892;53.236;6.550;2023-03-01T00:59:01;103388.16;;;-1.63;94.11
77725;BME280;66892;53.236;6.550;2023-03-01T01:01:30;103395.69;;;-1.55;94.03
77725;BME280;66892;53.236;6.550;2023-03-01T01:03:58;103391.94;;;-1.59;94.41
77725;BME280;66892;53.236;6.550;2023-03-01T01:06:26;103387.13;;;-1.65;94.21
77725;BME280;66892;53.236;6.550;2023-03-01T01:08:53;103398.00;;;-1.69;94.22
77725;BME280;66892;53.236;6.550;2023-03-01T01:11:20;103389.06;;;-1.72;94.24
77725;BME280;66892;53.236;6.550;2023-03-01T01:13:47;103388.38;;;-1.80;94.52
77725;BME280;66892;53.236;6.550;2023-03-01T01:16:14;103389.16;;;-1.81;94.73
77725;BME280;66892;53.236;6.550;2023-03-01T01:18:41;103384.09;;;-1.79;94.60
77725;BME280;66892;53.236;6.550;2023-03-01T01:21:09;103384.38;;;-1.76;94.98
77725;BME280;66892;53.236;6.550;2023-03-01T01:23:36;103375.41;;;-1.80;94.74
77725;BME280;66892;53.236;6.550;2023-03-01T01:26:04;103375.41;;;-1.80;95.47
77725;BME280;66892;53.236;6.550;2023-03-01T01:28:31;103376.97;;;-1.82;95.24
77725;BME280;66892;53.236;6.550;2023-03-01T01:30:57;103376.06;;;-1.82;94.81
77725;BME280;66892;53.236;6.550;2023-03-01T01:33:23;103372.03;;;-1.89;95.03
77725;BME280;66892;53.236;6.550;2023-03-01T01:35:50;103361.28;;;-1.93;94.88
77725;BME280;66892;53.236;6.550;2023-03-01T01:38:16;103363.97;;;-1.92;95.20
77725;BME280;66892;53.236;6.550;2023-03-01T01:40:43;103352.69;;;-1.92;94.96
77725;BME280;66892;53.236;6.550;2023-03-01T01:43:17;103353.22;;;-1.96;95.52
77725;BME280;66892;53.236;6.550;2023-03-01T01:45:45;103354.25;;;-1.94;95.02
77725;BME280;66892;53.236;6.550;2023-03-01T01:48:15;103351.81;;;-1.93;95.40
77725;BME280;66892;53.236;6.550;2023-03-01T01:50:42;103351.25;;;-1.99;95.66
77725;BME280;66892;53.236;6.550;2023-03-01T01:53:15;103354.50;;;-2.01;95.24
77725;BME280;66892;53.236;6.550;2023-03-01T01:55:45;103348.03;;;-2.06;94.70
77725;BME280;66892;53.236;6.550;2023-03-01T01:58:16;103343.59;;;-2.07;95.03
77725;BME280;66892;53.236;6.550;2023-03-01T02:00:44;103345.81;;;-2.12;94.89
77725;BME280;66892;53.236;6.550;2023-03-01T02:03:11;103348.41;;;-2.12;94.90
77725;BME280;66892;53.236;6.550;2023-03-01T02:05:43;103335.78;;;-2.18;95.47
77725;BME280;66892;53.236;6.550;2023-03-01T02:08:13;103338.00;;;-2.22;95.12
77725;BME280;66892;53.236;6.550;2023-03-01T02:10:42;103337.47;;;-2.18;95.75
77725;BME280;66892;53.236;6.550;2023-03-01T02:13:08;103333.84;;;-2.20;95.44
77725;BME280;66892;53.236;6.550;2023-03-01T02:15:36;103336.81;;;-2.26;95.99
77725;BME280;66892;53.236;6.550;2023-03-01T02:18:06;103328.53;;;-2.22;95.75
77725;BME280;66892;53.236;6.550;2023-03-01T02:20:37;103330.31;;;-2.31;95.63
77725;BME280;66892;53.236;6.550;2023-03-01T02:23:04;103322.41;;;-2.32;95.91
77725;BME280;66892;53.236;6.550;2023-03-01T02:25:37;103320.59;;;-2.33;95.53
77725;BME280;66892;53.236;6.550;2023-03-01T02:30:38;103315.25;;;-2.45;95.54
77725;BME280;66892;53.236;6.550;2023-03-01T02:33:25;103308.78;;;-2.40;95.25
77725;BME280;66892;53.236;6.550;2023-03-01T02:35:53;103312.00;;;-2.42;95.76
77725;BME280;66892;53.236;6.550;2023-03-01T02:38:20;103311.25;;;-2.41;95.97
77725;BME280;66892;53.236;6.550;2023-03-01T02:40:48;103292.84;;;-2.44;95.48
77725;BME280;66892;53.236;6.550;2023-03-01T02:43:16;103295.03;;;-2.49;95.51
77725;BME280;66892;53.236;6.550;2023-03-01T02:45:48;103289.56;;;-2.52;95.46
77725;BME280;66892;53.236;6.550;2023-03-01T02:48:14;103295.19;;;-2.47;95.33
77725;BME280;66892;53.236;6.550;2023-03-01T02:50:52;103298.03;;;-2.44;95.46
77725;BME280;66892;53.236;6.550;2023-03-01T02:53:27;103291.56;;;-2.39;94.90
77725;BME280;66892;53.236;6.550;2023-03-01T02:55:58;103296.88;;;-2.38;95.03
77725;BME280;66892;53.236;6.550;2023-03-01T02:58:25;103285.97;;;-2.44;94.73
77725;BME280;66892;53.236;6.550;2023-03-01T03:00:52;103277.03;;;-2.47;95.04
77725;BME280;66892;53.236;6.550;2023-03-01T03:03:20;103279.22;;;-2.52;95.21
77725;BME280;66892;53.236;6.550;2023-03-01T03:05:46;103277.38;;;-2.53;95.01
77725;BME280;66892;53.236;6.550;2023-03-01T03:08:14;103279.97;;;-2.53;94.99
77725;BME280;66892;53.236;6.550;2023-03-01T03:10:47;103274.44;;;-2.47;95.32
77725;BME280;66892;53.236;6.550;2023-03-01T03:13:14;103271.84;;;-2.47;94.49
77725;BME280;66892;53.236;6.550;2023-03-01T03:15:42;103268.09;;;-2.51;94.54
77725;BME280;66892;53.236;6.550;2023-03-01T03:18:11;103273.78;;;-2.55;94.38
77725;BME280;66892;53.236;6.550;2023-03-01T03:20:40;103272.59;;;-2.58;94.76
77725;BME280;66892;53.236;6.550;2023-03-01T03:23:06;103257.69;;;-2.61;94.57
77725;BME280;66892;53.236;6.550;2023-03-01T03:25:33;103273.50;;;-2.58;94.30
77725;BME280;66892;53.236;6.550;2023-03-01T03:28:03;103270.91;;;-2.58;95.04
77725;BME280;66892;53.236;6.550;2023-03-01T03:30:36;103270.53;;;-2.52;94.46
77725;BME280;66892;53.236;6.550;2023-03-01T03:33:05;103270.16;;;-2.57;94.85
77725;BME280;66892;53.236;6.550;2023-03-01T03:35:37;103285.31;;;-2.51;94.78
77725;BME280;66892;53.236;6.550;2023-03-01T03:38:07;103279.22;;;-2.52;94.94
77725;BME280;66892;53.236;6.550;2023-03-01T03:40:36;103277.53;;;-2.51;94.36
77725;BME280;66892;53.236;6.550;2023-03-01T03:43:04;103284.25;;;-2.53;94.83
77725;BME280;66892;53.236;6.550;2023-03-01T03:45:30;103286.22;;;-2.51;94.48
77725;BME280;66892;53.236;6.550;2023-03-01T03:47:58;103284.78;;;-2.57;94.44
77725;BME280;66892;53.236;6.550;2023-03-01T03:50:25;103281.28;;;-2.58;94.12
77725;BME280;66892;53.236;6.550;2023-03-01T03:52:52;103278.91;;;-2.65;94.55
77725;BME280;66892;53.236;6.550;2023-03-01T03:55:19;103272.53;;;-2.69;94.65
77725;BME280;66892;53.236;6.550;2023-03-01T03:57:46;103269.84;;;-2.70;94.35
77725;BME280;66892;53.236;6.550;2023-03-01T04:00:18;103269.56;;;-2.73;93.85
77725;BME280;66892;53.236;6.550;2023-03-01T04:02:46;103270.97;;;-2.77;94.85
77725;BME280;66892;53.236;6.550;2023-03-01T04:05:14;103274.19;;;-2.79;95.20
77725;BME280;66892;53.236;6.550;2023-03-01T04:07:42;103277.06;;;-2.76;94.55
77725;BME280;66892;53.236;6.550;2023-03-01T04:10:11;103291.03;;;-2.74;94.69
77725;BME280;66892;53.236;6.550;2023-03-01T04:12:37;103287.53;;;-2.75;94.30
77725;BME280;66892;53.236;6.550;2023-03-01T04:15:06;103283.66;;;-2.80;93.90
77725;BME280;66892;53.236;6.550;2023-03-01T04:17:39;103303.34;;;-3.00;94.29
77725;BME280;66892;53.236;6.550;2023-03-01T04:20:06;103293.47;;;-3.04;93.52
77725;BME280;66892;53.236;6.550;2023-03-01T04:22:32;103295.59;;;-3.19;94.40
77725;BME280;66892;53.236;6.550;2023-03-01T04:24:59;103293.84;;;-3.29;94.36
77725;BME280;66892;53.236;6.550;2023-03-01T04:27:33;103291.66;;;-3.43;94.20
77725;BME280;66892;53.236;6.550;2023-03-01T04:29:59;103287.56;;;-3.41;94.07
77725;BME280;66892;53.236;6.550;2023-03-01T04:32:25;103283.34;;;-3.30;94.04
77725;BME280;66892;53.236;6.550;2023-03-01T04:34:51;103283.44;;;-3.39;93.27
77725;BME280;66892;53.236;6.550;2023-03-01T04:37:17;103276.44;;;-3.40;93.53
77725;BME280;66892;53.236;6.550;2023-03-01T04:39:44;103272.38;;;-3.46;94.05
77725;BME280;66892;53.236;6.550;2023-03-01T04:42:13;103279.53;;;-3.44;94.28
77725;BME280;66892;53.236;6.550;2023-03-01T04:44:41;103274.34;;;-3.44;93.95
77725;BME280;66892;53.236;6.550;2023-03-01T04:47:07;103270.97;;;-3.43;93.66
77725;BME280;66892;53.236;6.550;2023-03-01T04:49:33;103268.00;;;-3.47;94.35
77725;BME280;66892;53.236;6.550;2023-03-01T04:51:59;103266.94;;;-3.49;94.80
77725;BME280;66892;53.236;6.550;2023-03-01T04:54:27;103262.53;;;-3.50;94.14
77725;BME280;66892;53.236;6.550;2023-03-01T04:56:53;103256.94;;;-3.55;94.29
77725;BME280;66892;53.236;6.550;2023-03-01T04:59:19;103265.06;;;-3.60;95.02
77725;BME280;66892;53.236;6.550;2023-03-01T05:01:49;103261.41;;;-3.62;94.79
77725;BME280;66892;53.236;6.550;2023-03-01T05:04:15;103253.16;;;-3.58;94.86
77725;BME280;66892;53.236;6.550;2023-03-01T05:06:41;103249.81;;;-3.57;94.51
77725;BME280;66892;53.236;6.550;2023-03-01T05:09:07;103246.47;;;-3.56;95.14
77725;BME280;66892;53.236;6.550;2023-03-01T05:11:33;103247.03;;;-3.50;94.67
77725;BME280;66892;53.236;6.550;2023-03-01T05:14:01;103238.91;;;-3.45;94.31
77725;BME280;66892;53.236;6.550;2023-03-01T05:16:27;103235.28;;;-3.47;94.15
77725;BME280;66892;53.236;6.550;2023-03-01T05:18:55;103229.81;;;-3.50;93.96
77725;BME280;66892;53.236;6.550;2023-03-01T05:21:21;103230.88;;;-3.48;93.84
77725;BME280;66892;53.236;6.550;2023-03-01T05:23:47;103221.94;;;-3.51;94.27
77725;BME280;66892;53.236;6.550;2023-03-01T05:26:14;103222.84;;;-3.51;93.93
77725;BME280;66892;53.236;6.550;2023-03-01T05:28:40;103222.19;;;-3.48;93.60
77725;BME280;66892;53.236;6.550;2023-03-01T05:31:07;103219.25;;;-3.43;94.00
77725;BME280;66892;53.236;6.550;2023-03-01T05:33:35;103220.16;;;-3.42;93.82
77725;BME280;66892;53.236;6.550;2023-03-01T05:36:04;103212.28;;;-3.44;93.50
77725;BME280;66892;53.236;6.550;2023-03-01T05:38:30;103210.81;;;-3.50;93.58
77725;BME280;66892;53.236;6.550;2023-03-01T05:40:56;103211.69;;;-3.50;93.83
77725;BME280;66892;53.236;6.550;2023-03-01T05:43:22;103209.91;;;-3.51;94.05
77725;BME280;66892;53.236;6.550;2023-03-01T05:45:48;103211.84;;;-3.48;94.04
77725;BME280;66892;53.236;6.550;2023-03-01T05:48:14;103210.31;;;-3.46;93.62
77725;BME280;66892;53.236;6.550;2023-03-01T05:50:42;103198.00;;;-3.49;93.33
77725;BME280;66892;53.236;6.550;2023-03-01T05:53:12;103192.09;;;-3.48;93.05
77725;BME280;66892;53.236;6.550;2023-03-01T05:55:39;103193.59;;;-3.50;93.61
77725;BME280;66892;53.236;6.550;2023-03-01T05:58:07;103196.06;;;-3.51;93.67
77725;BME280;66892;53.236;6.550;2023-03-01T06:00:33;103198.16;;;-3.47;93.92
77725;BME280;66892;53.236;6.550;2023-03-01T06:03:00;103191.16;;;-3.48;94.16
77725;BME280;66892;53.236;6.550;2023-03-01T06:05:27;103197.09;;;-3.49;94.55
77725;BME280;66892;53.236;6.550;2023-03-01T06:07:53;103205.13;;;-3.46;94.33
77725;BME280;66892;53.236;6.550;2023-03-01T06:10:22;103203.81;;;-3.51;94.50
77725;BME280;66892;53.236;6.550;2023-03-01T06:12:48;103201.34;;;-3.50;94.48
77725;BME280;66892;53.236;6.550;2023-03-01T06:15:15;103200.59;;;-3.49;94.49
77725;BME280;66892;53.236;6.550;2023-03-01T06:17:43;103206.69;;;-3.48;94.53
77725;BME280;66892;53.236;6.550;2023-03-01T06:20:13;103209.44;;;-3.37;94.37
77725;BME280;66892;53.236;6.550;2023-03-01T06:22:40;103202.34;;;-3.39;94.54
77725;BME280;66892;53.236;6.550;2023-03-01T06:25:07;103211.00;;;-3.39;93.89
77725;BME280;66892;53.236;6.550;2023-03-01T06:27:35;103207.50;;;-3.39;93.89
77725;BME280;66892;53.236;6.550;2023-03-01T06:30:02;103212.69;;;-3.39;94.16
77725;BME280;66892;53.236;6.550;2023-03-01T06:32:28;103213.75;;;-3.37;94.48
77725;BME280;66892;53.236;6.550;2023-03-01T06:34:54;103220.88;;;-3.35;93.87
77725;BME280;66892;53.236;6.550;2023-03-01T06:37:20;103229.28;;;-3.37;93.32
77725;BME280;66892;53.236;6.550;2023-03-01T06:39:46;103226.16;;;-3.33;93.11
77725;BME280;66892;53.236;6.550;2023-03-01T06:42:12;103226.03;;;-3.35;93.59
77725;BME280;66892;53.236;6.550;2023-03-01T06:44:39;103228.09;;;-3.31;93.05
77725;BME280;66892;53.236;6.550;2023-03-01T06:47:05;103227.34;;;-3.30;93.42
77725;BME280;66892;53.236;6.550;2023-03-01T06:49:31;103233.97;;;-3.23;93.02
77725;BME280;66892;53.236;6.550;2023-03-01T06:51:57;103220.28;;;-3.22;93.07
77725;BME280;66892;53.236;6.550;2023-03-01T06:54:23;103236.72;;;-3.22;92.89
77725;BME280;66892;53.236;6.550;2023-03-01T06:56:50;103232.31;;;-3.23;93.24
77725;BME280;66892;53.236;6.550;2023-03-01T06:59:17;103231.19;;;-3.16;93.41
77725;BME280;66892;53.236;6.550;2023-03-01T07:01:44;103232.09;;;-3.15;93.78
77725;BME280;66892;53.236;6.550;2023-03-01T07:04:10;103227.59;;;-3.08;93.92
77725;BME280;66892;53.236;6.550;2023-03-01T07:06:36;103239.75;;;-3.07;93.24
77725;BME280;66892;53.236;6.550;2023-03-01T07:09:03;103241.84;;;-3.03;93.68
77725;BME280;66892;53.236;6.550;2023-03-01T07:11:29;103233.88;;;-2.96;93.87
77725;BME280;66892;53.236;6.550;2023-03-01T07:13:55;103234.75;;;-2.95;93.68
77725;BME280;66892;53.236;6.550;2023-03-01T07:16:21;103228.97;;;-2.93;94.52
77725;BME280;66892;53.236;6.550;2023-03-01T07:18:49;103227.56;;;-2.89;93.52
77725;BME280;66892;53.236;6.550;2023-03-01T07:21:15;103234.81;;;-2.85;94.05
77725;BME280;66892;53.236;6.550;2023-03-01T07:23:42;103236.41;;;-2.77;93.93
77725;BME280;66892;53.236;6.550;2023-03-01T07:26:08;103229.16;;;-2.71;93.60
77725;BME280;66892;53.236;6.550;2023-03-01T07:28:34;103228.78;;;-2.66;93.76
77725;BME280;66892;53.236;6.550;2023-03-01T07:31:01;103226.88;;;-2.58;93.86
77725;BME280;66892;53.236;6.550;2023-03-01T07:33:28;103227.41;;;-2.52;93.72
77725;BME280;66892;53.236;6.550;2023-03-01T07:35:59;103222.63;;;-2.47;94.03
77725;BME280;66892;53.236;6.550;2023-03-01T07:38:26;103225.09;;;-2.39;93.93
77725;BME280;66892;53.236;6.550;2023-03-01T07:40:52;103230.31;;;-2.29;93.87
77725;BME280;66892;53.236;6.550;2023-03-01T07:43:18;103219.72;;;-2.22;93.83
77725;BME280;66892;53.236;6.550;2023-03-01T07:45:46;103225.41;;;-2.16;93.47
77725;BME280;66892;53.236;6.550;2023-03-01T07:48:12;103232.91;;;-2.08;93.74
77725;BME280;66892;53.236;6.550;2023-03-01T07:50:38;103222.16;;;-2.03;93.88
77725;BME280;66892;53.236;6.550;2023-03-01T07:53:05;103228.00;;;-1.95;93.50
77725;BME280;66892;53.236;6.550;2023-03-01T07:55:31;103224.13;;;-1.90;93.67
77725;BME280;66892;53.236;6.550;2023-03-01T07:57:57;103228.78;;;-1.86;93.31
77725;BME280;66892;53.236;6.550;2023-03-01T08:00:23;103228.38;;;-1.81;93.41
77725;BME280;66892;53.236;6.550;2023-03-01T08:02:49;103235.09;;;-1.73;93.00
77725;BME280;66892;53.236;6.550;2023-03-01T08:05:16;103232.91;;;-1.68;94.06
77725;BME280;66892;53.236;6.550;2023-03-01T08:07:42;103224.72;;;-1.63;92.92
77725;BME280;66892;53.236;6.550;2023-03-01T08:10:10;103224.31;;;-1.57;93.54
77725;BME280;66892;53.236;6.550;2023-03-01T08:12:37;103230.69;;;-1.53;93.50
77725;BME280;66892;53.236;6.550;2023-03-01T08:15:03;103223.28;;;-1.49;93.82
77725;BME280;66892;53.236;6.550;2023-03-01T08:17:29;103231.31;;;-1.46;93.89
77725;BME280;66892;53.236;6.550;2023-03-01T08:19:55;103228.97;;;-1.43;93.74
77725;BME280;66892;53.236;6.550;2023-03-01T08:22:21;103229.66;;;-1.45;94.21
77725;BME280;66892;53.236;6.550;2023-03-01T08:24:50;103225.22;;;-1.46;93.63
77725;BME280;66892;53.236;6.550;2023-03-01T08:27:17;103231.31;;;-1.46;94.60
77725;BME280;66892;53.236;6.550;2023-03-01T08:29:43;103232.75;;;-1.39;95.23
77725;BME280;66892;53.236;6.550;2023-03-01T08:32:09;103225.88;;;-1.39;94.59
77725;BME280;66892;53.236;6.550;2023-03-01T08:34:35;103218.59;;;-1.33;95.08
77725;BME280;66892;53.236;6.550;2023-03-01T08:37:01;103220.66;;;-1.29;95.72
77725;BME280;66892;53.236;6.550;2023-03-01T08:39:27;103227.13;;;-1.24;95.30
77725;BME280;66892;53.236;6.550;2023-03-01T08:41:53;103219.59;;;-1.21;94.95
77725;BME280;66892;53.236;6.550;2023-03-01T08:44:21;103228.25;;;-1.10;95.89
77725;BME280;66892;53.236;6.550;2023-03-01T08:46:47;103227.97;;;-1.03;95.56
77725;BME280;66892;53.236;6.550;2023-03-01T08:49:17;103221.84;;;-0.93;96.30
77725;BME280;66892;53.236;6.550;2023-03-01T08:51:45;103215.56;;;-0.85;96.35
77725;BME280;66892;53.236;6.550;2023-03-01T08:54:13;103215.88;;;-0.71;95.79
77725;BME280;66892;53.236;6.550;2023-03-01T08:56:40;103210.13;;;-0.67;95.92
77725;BME280;66892;53.236;6.550;2023-03-01T08:59:07;103216.38;;;-0.43;95.55
77725;BME280;66892;53.236;6.550;2023-03-01T09:01:34;103213.97;;;-0.18;94.43
77725;BME280;66892;53.236;6.550;2023-03-01T09:04:00;103214.97;;;0.06;93.95
77725;BME280;66892;53.236;6.550;2023-03-01T09:06:26;103208.91;;;0.40;92.85
77725;BME280;66892;53.236;6.550;2023-03-01T09:08:52;103210.84;;;0.42;92.21
77725;BME280;66892;53.236;6.550;2023-03-01T09:11:20;103202.84;;;0.86;88.61
77725;BME280;66892;53.236;6.550;2023-03-01T09:13:48;103204.31;;;0.82;89.61
77725;BME280;66892;53.236;6.550;2023-03-01T09:16:15;103195.78;;;1.08;88.15
77725;BME280;66892;53.236;6.550;2023-03-01T09:18:48;103197.25;;;1.04;88.00
77725;BME280;66892;53.236;6.550;2023-03-01T09:21:15;103204.63;;;0.98;89.19
77725;BME280;66892;53.236;6.550;2023-03-01T09:23:43;103201.69;;;0.94;88.47
77725;BME280;66892;53.236;6.550;2023-03-01T09:26:11;103199.75;;;0.91;88.85
77725;BME280;66892;53.236;6.550;2023-03-01T09:28:39;103187.63;;;1.15;86.20
77725;BME280;66892;53.236;6.550;2023-03-01T09:31:06;103195.06;;;1.22;85.60
77725;BME280;66892;53.236;6.550;2023-03-01T09:33:33;103188.97;;;1.22;82.99
77725;BME280;66892;53.236;6.550;2023-03-01T09:36:02;103179.13;;;1.54;82.44
77725;BME280;66892;53.236;6.550;2023-03-01T09:38:29;103185.34;;;1.56;83.27
77725;BME280;66892;53.236;6.550;2023-03-01T09:40:56;103192.38;;;1.57;83.20
77725;BME280;66892;53.236;6.550;2023-03-01T09:43:26;103181.81;;;1.55;84.41
77725;BME280;66892;53.236;6.550;2023-03-01T09:46:00;103185.41;;;1.57;83.97
77725;BME280;66892;53.236;6.550;2023-03-01T09:48:33;103189.97;;;1.60;84.66
77725;BME280;66892;53.236;6.550;2023-03-01T09:51:02;103192.66;;;1.73;81.96
77725;BME280;66892;53.236;6.550;2023-03-01T09:53:32;103198.84;;;1.75;84.41
77725;BME280;66892;53.236;6.550;2023-03-01T09:56:04;103199.25;;;2.06;80.35
77725;BME280;66892;53.236;6.550;2023-03-01T09:58:36;103200.44;;;1.98;81.33
77725;BME280;66892;53.236;6.550;2023-03-01T10:01:19;103197.13;;;2.00;81.61
77725;BME280;66892;53.236;6.550;2023-03-01T10:04:03;103197.72;;;2.47;77.57
77725;BME280;66892;53.236;6.550;2023-03-01T10:06:33;103195.13;;;2.47;77.66
77725;BME280;66892;53.236;6.550;2023-03-01T10:09:02;103195.25;;;2.75;76.93
77725;BME280;66892;53.236;6.550;2023-03-01T10:11:33;103194.66;;;2.53;80.95
77725;BME280;66892;53.236;6.550;2023-03-01T10:14:03;103195.34;;;2.50;78.44
77725;BME280;66892;53.236;6.550;2023-03-01T10:16:38;103190.81;;;2.48;79.95
77725;BME280;66892;53.236;6.550;2023-03-01T10:19:11;103192.94;;;2.66;78.31
77725;BME280;66892;53.236;6.550;2023-03-01T10:21:45;103187.03;;;2.95;78.45
77725;BME280;66892;53.236;6.550;2023-03-01T10:24:13;103190.50;;;2.83;80.51
77725;BME280;66892;53.236;6.550;2023-03-01T10:26:48;103188.13;;;2.86;79.92
77725;BME280;66892;53.236;6.550;2023-03-01T10:29:21;103189.13;;;2.88;79.46
77725;BME280;66892;53.236;6.550;2023-03-01T10:31:51;103191.41;;;2.96;77.72
77725;BME280;66892;53.236;6.550;2023-03-01T10:34:20;103188.19;;;3.13;77.52
77725;BME280;66892;53.236;6.550;2023-03-01T10:36:50;103183.56;;;3.09;78.58
77725;BME280;66892;53.236;6.550;2023-03-01T10:39:19;103176.69;;;3.25;78.36
77725;BME280;66892;53.236;6.550;2023-03-01T10:41:57;103176.97;;;3.42;78.05
77725;BME280;66892;53.236;6.550;2023-03-01T10:44:42;103168.81;;;3.38;77.31
77725;BME280;66892;53.236;6.550;2023-03-01T10:47:14;103167.28;;;3.41;78.96
77725;BME280;66892;53.236;6.550;2023-03-01T10:50:01;103166.38;;;3.41;77.82
77725;BME280;66892;53.236;6.550;2023-03-01T10:52:32;103159.75;;;3.46;76.90
77725;BME280;66892;53.236;6.550;2023-03-01T10:54:59;103157.94;;;3.45;77.05
77725;BME280;66892;53.236;6.550;2023-03-01T10:57:32;103158.31;;;3.51;77.83
77725;BME280;66892;53.236;6.550;2023-03-01T11:00:16;103160.13;;;3.52;77.77
77725;BME280;66892;53.236;6.550;2023-03-01T11:02:48;103165.59;;;3.42;78.98
77725;BME280;66892;53.236;6.550;2023-03-01T11:05:19;103156.97;;;3.57;78.98
77725;BME280;66892;53.236;6.550;2023-03-01T11:07:51;103157.53;;;3.94;77.59
77725;BME280;66892;53.236;6.550;2023-03-01T11:10:20;103150.38;;;3.92;78.03
77725;BME280;66892;53.236;6.550;2023-03-01T11:12:47;103158.44;;;3.95;77.66
77725;BME280;66892;53.236;6.550;2023-03-01T11:15:21;103155.28;;;4.00;76.15
77725;BME280;66892;53.236;6.550;2023-03-01T11:17:49;103153.91;;;4.21;73.70
77725;BME280;66892;53.236;6.550;2023-03-01T11:20:23;103148.53;;;4.33;73.71
77725;BME280;66892;53.236;6.550;2023-03-01T11:22:54;103156.38;;;4.33;74.43
77725;BME280;66892;53.236;6.550;2023-03-01T11:25:24;103154.09;;;4.39;74.02
77725;BME280;66892;53.236;6.550;2023-03-01T11:27:52;103157.50;;;4.53;72.65
77725;BME280;66892;53.236;6.550;2023-03-01T11:30:23;103159.66;;;4.60;69.20
77725;BME280;66892;53.236;6.550;2023-03-01T11:32:56;103156.53;;;4.65;68.54
77725;BME280;66892;53.236;6.550;2023-03-01T11:35:27;103160.19;;;4.69;69.85
77725;BME280;66892;53.236;6.550;2023-03-01T11:38:02;103158.47;;;4.69;70.35
77725;BME280;66892;53.236;6.550;2023-03-01T11:40:33;103153.53;;;4.74;68.86
77725;BME280;66892;53.236;6.550;2023-03-01T11:43:11;103149.44;;;4.79;69.54
77725;BME280;66892;53.236;6.550;2023-03-01T11:45:55;103145.19;;;4.81;68.08
77725;BME280;66892;53.236;6.550;2023-03-01T11:48:38;103140.47;;;4.90;67.38
77725;BME280;66892;53.236;6.550;2023-03-01T11:51:12;103137.91;;;4.92;67.80
77725;BME280;66892;53.236;6.550;2023-03-01T11:53:59;103141.25;;;6.01;65.31
77725;BME280;66892;53.236;6.550;2023-03-01T11:56:32;103143.41;;;7.31;56.92
77725;BME280;66892;53.236;6.550;2023-03-01T11:59:32;103136.41;;;8.93;52.28
77725;BME280;66892;53.236;6.550;2023-03-01T12:02:26;103126.28;;;9.72;50.07
77725;BME280;66892;53.236;6.550;2023-03-01T12:05:14;103126.56;;;10.28;47.17
77725;BME280;66892;53.236;6.550;2023-03-01T12:07:48;103116.09;;;9.59;48.75
77725;BME280;66892;53.236;6.550;2023-03-01T12:10:26;103116.38;;;8.14;53.23
77725;BME280;66892;53.236;6.550;2023-03-01T12:13:29;103117.59;;;6.87;55.40
77725;BME280;66892;53.236;6.550;2023-03-01T12:16:15;103111.38;;;6.32;58.80
77725;BME280;66892;53.236;6.550;2023-03-01T12:18:57;103109.91;;;6.04;61.07
77725;BME280;66892;53.236;6.550;2023-03-01T12:21:38;103102.47;;;5.79;62.77
77725;BME280;66892;53.236;6.550;2023-03-01T12:27:25;103090.00;;;5.75;63.38
77725;BME280;66892;53.236;6.550;2023-03-01T12:30:00;103089.78;;;5.70;64.39
77725;BME280;66892;53.236;6.550;2023-03-01T12:32:41;103080.34;;;5.74;65.37
77725;BME280;66892;53.236;6.550;2023-03-01T12:35:29;103086.50;;;5.74;64.43
77725;BME280;66892;53.236;6.550;2023-03-01T12:38:05;103075.41;;;5.80;63.08
77725;BME280;66892;53.236;6.550;2023-03-01T12:40:45;103069.91;;;5.75;64.05
77725;BME280;66892;53.236;6.550;2023-03-01T12:43:22;103070.91;;;5.77;63.80
77725;BME280;66892;53.236;6.550;2023-03-01T12:46:08;103065.41;;;5.73;63.88
77725;BME280;66892;53.236;6.550;2023-03-01T12:48:42;103066.31;;;5.73;63.88
77725;BME280;66892;53.236;6.550;2023-03-01T12:51:14;103053.53;;;5.63;65.08
77725;BME280;66892;53.236;6.550;2023-03-01T12:53:42;103058.13;;;5.67;64.19
77725;BME280;66892;53.236;6.550;2023-03-01T12:56:11;103058.13;;;5.67;62.95
77725;BME280;66892;53.236;6.550;2023-03-01T12:58:48;103049.03;;;5.95;62.12
77725;BME280;66892;53.236;6.550;2023-03-01T13:01:23;103042.81;;;5.93;63.47
77725;BME280;66892;53.236;6.550;2023-03-01T13:04:14;103048.69;;;5.87;64.20
77725;BME280;66892;53.236;6.550;2023-03-01T13:06:50;103038.78;;;5.83;63.98
77725;BME280;66892;53.236;6.550;2023-03-01T13:09:27;103043.91;;;5.80;64.22